createdAt,value
2018-03-14T00:02:21.918Z,15.75
2018-03-14T00:04:48.426Z,15.75
2018-03-14T00:07:14.915Z,15.76
2018-03-14T00:09:41.541Z,15.76
2018-03-14T00:12:08.015Z,15.76
2018-03-14T00:14:34.530Z,15.76
2018-03-14T00:17:01.021Z,15.76
2018-03-14T00:19:27.524Z,15.75
2018-03-14T00:21:54.000Z,15.76
2018-03-14T00:24:20.503Z,15.76
2018-03-14T00:26:46.980Z,15.77
2018-03-14T00:29:13.486Z,15.75
2018-03-14T00:31:40.769Z,15.76
2018-03-14T00:34:07.278Z,15.76
2018-03-14T00:36:33.756Z,15.76
2018-03-14T00:39:00.279Z,15.77
2018-03-14T00:41:26.743Z,15.76
2018-03-14T00:43:54.033Z,15.76
2018-03-14T00:46:20.527Z,15.76
2018-03-14T00:48:46.981Z,15.76
2018-03-14T00:51:13.468Z,15.76
2018-03-14T00:53:39.934Z,15.76
2018-03-14T00:56:06.418Z,15.76
2018-03-14T00:58:32.894Z,15.76
2018-03-14T01:00:59.403Z,15.76
2018-03-14T01:03:26.658Z,15.76
2018-03-14T01:05:53.164Z,15.76
2018-03-14T01:08:19.643Z,15.76
2018-03-14T01:10:46.165Z,15.76
2018-03-14T01:13:12.654Z,15.77
2018-03-14T01:15:39.145Z,15.76
2018-03-14T01:18:05.612Z,15.75
2018-03-14T01:20:32.117Z,15.77
2018-03-14T01:22:59.388Z,15.76
2018-03-14T01:25:26.658Z,15.76
2018-03-14T01:27:53.888Z,15.77
2018-03-14T01:30:20.398Z,15.77
2018-03-14T01:32:46.860Z,15.76
2018-03-14T01:35:13.337Z,15.76
2018-03-14T01:37:39.836Z,15.77
2018-03-14T01:40:06.333Z,15.76
2018-03-14T01:42:33.578Z,15.76
2018-03-14T01:45:00.098Z,15.77
2018-03-14T01:47:26.574Z,15.76
2018-03-14T01:49:53.051Z,15.76
2018-03-14T01:52:20.298Z,15.76
2018-03-14T01:54:46.778Z,15.77
2018-03-14T01:57:14.041Z,15.77
2018-03-14T01:59:40.516Z,15.77
2018-03-14T02:02:07.030Z,15.77
2018-03-14T02:04:33.514Z,15.77
2018-03-14T02:07:00.030Z,15.77
2018-03-14T02:09:27.268Z,15.76
2018-03-14T02:11:53.784Z,15.77
2018-03-14T02:14:20.248Z,15.76
2018-03-14T02:16:46.774Z,15.77
2018-03-14T02:19:13.258Z,15.78
2018-03-14T02:21:40.552Z,15.77
2018-03-14T02:24:07.043Z,15.77
2018-03-14T02:26:33.519Z,15.76
2018-03-14T02:29:00.825Z,15.76
2018-03-14T02:31:27.379Z,15.77
2018-03-14T02:33:54.853Z,15.78
2018-03-14T02:36:21.418Z,15.78
2018-03-14T02:38:47.894Z,15.77
2018-03-14T02:41:15.136Z,15.77
2018-03-14T02:43:41.602Z,15.77
2018-03-14T02:46:08.065Z,15.77
2018-03-14T02:48:34.507Z,15.77
2018-03-14T02:51:00.969Z,15.78
2018-03-14T02:53:27.414Z,15.77
2018-03-14T02:55:53.870Z,15.77
2018-03-14T02:58:21.090Z,15.77
2018-03-14T03:00:47.550Z,15.78
2018-03-14T03:03:14.764Z,15.77
2018-03-14T03:05:41.232Z,15.77
2018-03-14T03:08:07.702Z,15.77
2018-03-14T03:10:34.152Z,15.77
2018-03-14T03:13:00.624Z,15.77
2018-03-14T03:15:27.846Z,15.78
2018-03-14T03:17:54.311Z,15.78
2018-03-14T03:20:20.798Z,15.77
2018-03-14T03:22:47.259Z,15.78
2018-03-14T03:25:13.753Z,15.78
2018-03-14T03:27:41.715Z,15.77
2018-03-14T03:30:08.246Z,15.77
2018-03-14T03:32:34.713Z,15.77
2018-03-14T03:35:01.209Z,15.77
2018-03-14T03:37:28.443Z,15.77
2018-03-14T03:39:54.941Z,15.78
2018-03-14T03:42:21.385Z,15.78
2018-03-14T03:44:47.898Z,15.77
2018-03-14T03:47:15.136Z,15.78
2018-03-14T03:49:41.633Z,15.77
2018-03-14T03:52:08.094Z,15.77
2018-03-14T03:54:34.570Z,15.78
2018-03-14T03:57:01.017Z,15.77
2018-03-14T03:59:27.482Z,15.78
2018-03-14T04:01:53.942Z,15.77
2018-03-14T04:04:21.181Z,15.78
2018-03-14T04:06:47.643Z,15.78
2018-03-14T04:09:14.100Z,15.78
2018-03-14T04:11:41.323Z,15.78
2018-03-14T04:14:07.772Z,15.78
2018-03-14T04:16:34.234Z,15.78
2018-03-14T04:19:00.677Z,15.78
2018-03-14T04:21:27.120Z,15.78
2018-03-14T04:23:53.619Z,15.77
2018-03-14T04:26:20.070Z,15.78
2018-03-14T04:28:46.523Z,15.78
2018-03-14T04:31:12.997Z,15.78
2018-03-14T04:33:39.494Z,15.78
2018-03-14T04:36:05.967Z,15.78
2018-03-14T04:38:32.417Z,15.78
2018-03-14T04:40:58.875Z,15.78
2018-03-14T04:43:25.404Z,15.78
2018-03-14T04:45:51.970Z,15.77
2018-03-14T04:48:18.431Z,15.74
2018-03-14T04:50:44.878Z,15.76
2018-03-14T04:53:11.410Z,15.77
2018-03-14T04:55:37.870Z,15.74
2018-03-14T04:58:04.382Z,15.77
2018-03-14T05:00:30.832Z,15.78
2018-03-14T05:02:57.294Z,15.79
2018-03-14T05:05:23.754Z,15.79
2018-03-14T05:07:50.211Z,15.79
2018-03-14T05:10:17.056Z,15.79
2018-03-14T05:12:43.514Z,15.78
2018-03-14T05:15:09.971Z,15.79
2018-03-14T05:17:37.198Z,15.79
2018-03-14T05:20:04.133Z,15.79
2018-03-14T05:22:30.605Z,15.79
2018-03-14T05:24:57.051Z,15.79
2018-03-14T05:27:23.511Z,15.78
2018-03-14T05:29:50.014Z,15.79
2018-03-14T05:32:16.475Z,15.78
2018-03-14T05:34:42.966Z,15.79
2018-03-14T05:37:09.469Z,15.78
2018-03-14T05:39:35.938Z,15.78
2018-03-14T05:42:02.681Z,15.78
2018-03-14T05:44:29.161Z,15.78
2018-03-14T05:46:55.618Z,15.78
2018-03-14T05:49:22.842Z,15.79
2018-03-14T05:51:49.291Z,15.79
2018-03-14T05:54:15.896Z,15.78
2018-03-14T05:56:42.386Z,15.79
2018-03-14T05:59:08.857Z,15.78
2018-03-14T06:01:35.341Z,15.78
2018-03-14T06:04:01.896Z,15.78
2018-03-14T06:06:28.372Z,15.78
2018-03-14T06:08:54.845Z,15.79
2018-03-14T06:11:21.334Z,15.79
2018-03-14T06:13:47.798Z,15.80
2018-03-14T06:16:14.265Z,15.79
2018-03-14T06:18:40.708Z,15.79
2018-03-14T06:21:07.192Z,15.79
2018-03-14T06:23:34.400Z,15.79
2018-03-14T06:26:00.897Z,15.79
2018-03-14T06:28:28.122Z,15.79
2018-03-14T06:30:54.620Z,15.78
2018-03-14T06:33:21.856Z,15.80
2018-03-14T06:35:48.341Z,15.80
2018-03-14T06:38:14.811Z,15.79
2018-03-14T06:40:41.370Z,15.80
2018-03-14T06:43:07.841Z,15.79
2018-03-14T06:45:34.343Z,15.79
2018-03-14T06:48:00.793Z,15.80
2018-03-14T06:50:27.292Z,15.80
2018-03-14T06:52:53.740Z,15.80
2018-03-14T06:55:20.209Z,15.80
2018-03-14T06:57:47.438Z,15.81
2018-03-14T07:00:13.909Z,15.80
2018-03-14T07:02:41.116Z,15.79
2018-03-14T07:05:07.608Z,15.80
2018-03-14T07:07:34.079Z,15.80
2018-03-14T07:10:00.577Z,15.81
2018-03-14T07:12:27.820Z,15.80
2018-03-14T07:14:54.310Z,15.80
2018-03-14T07:17:20.752Z,15.80
2018-03-14T07:19:48.757Z,15.81
2018-03-14T07:22:15.982Z,15.80
2018-03-14T07:24:42.484Z,15.80
2018-03-14T07:27:08.961Z,15.80
2018-03-14T07:29:35.442Z,15.79
2018-03-14T07:32:01.890Z,15.80
2018-03-14T07:34:28.354Z,15.80
2018-03-14T07:36:55.588Z,15.80
2018-03-14T07:39:22.049Z,15.80
2018-03-14T07:41:48.502Z,15.81
2018-03-14T07:44:15.772Z,15.81
2018-03-14T07:46:43.013Z,15.81
2018-03-14T07:49:10.224Z,15.81
2018-03-14T07:51:36.682Z,15.81
2018-03-14T07:54:03.165Z,15.80
2018-03-14T07:56:29.609Z,15.81
2018-03-14T07:58:56.113Z,15.81
2018-03-14T08:01:22.580Z,15.81
2018-03-14T08:03:49.046Z,15.81
2018-03-14T08:06:15.502Z,15.82
2018-03-14T08:08:41.963Z,15.82
2018-03-14T08:11:09.186Z,15.82
2018-03-14T08:13:35.856Z,15.82
2018-03-14T08:16:02.205Z,15.83
2018-03-14T08:18:30.184Z,15.82
2018-03-14T08:20:57.396Z,15.83
2018-03-14T08:23:23.854Z,15.82
2018-03-14T08:25:50.314Z,15.66
2018-03-14T08:28:16.784Z,15.75
2018-03-14T08:30:43.246Z,15.78
2018-03-14T08:33:09.693Z,15.79
2018-03-14T08:35:36.161Z,15.79
2018-03-14T08:38:02.727Z,15.80
2018-03-14T08:40:29.210Z,15.80
2018-03-14T08:42:55.656Z,15.81
2018-03-14T08:45:22.149Z,15.81
2018-03-14T08:47:48.607Z,15.82
2018-03-14T08:50:15.076Z,15.82
2018-03-14T08:52:41.560Z,15.80
2018-03-14T08:55:08.028Z,15.81
2018-03-14T08:57:35.265Z,15.82
2018-03-14T09:00:01.784Z,15.81
2018-03-14T09:02:28.257Z,15.82
2018-03-14T09:04:55.552Z,15.82
2018-03-14T09:07:22.014Z,15.81
2018-03-14T09:09:48.499Z,15.82
2018-03-14T09:12:14.972Z,15.81
2018-03-14T09:14:41.450Z,15.82
2018-03-14T09:17:07.920Z,15.82
2018-03-14T09:19:34.461Z,15.82
2018-03-14T09:22:00.922Z,15.82
2018-03-14T09:24:27.392Z,15.82
2018-03-14T09:26:53.835Z,15.82
2018-03-14T09:29:20.295Z,15.83
2018-03-14T09:31:48.333Z,15.82
2018-03-14T09:34:14.774Z,15.82
2018-03-14T09:36:41.230Z,15.83
2018-03-14T09:39:07.705Z,15.83
2018-03-14T09:41:34.157Z,15.82
2018-03-14T09:44:00.631Z,15.82
2018-03-14T09:46:28.009Z,15.82
2018-03-14T09:48:54.480Z,15.83
2018-03-14T09:51:20.928Z,15.83
2018-03-14T09:53:47.387Z,15.82
2018-03-14T09:56:13.851Z,15.82
2018-03-14T09:58:40.315Z,15.82
2018-03-14T10:01:07.540Z,15.83
2018-03-14T10:03:34.003Z,15.83
2018-03-14T10:06:00.466Z,15.83
2018-03-14T10:08:26.913Z,15.83
2018-03-14T10:10:53.385Z,15.83
2018-03-14T10:13:19.843Z,15.83
2018-03-14T10:15:46.313Z,15.83
2018-03-14T10:18:12.780Z,15.82
2018-03-14T10:20:39.261Z,15.83
2018-03-14T10:23:06.496Z,15.82
2018-03-14T10:25:32.994Z,15.82
2018-03-14T10:27:59.432Z,15.83
2018-03-14T10:30:25.904Z,15.83
2018-03-14T10:32:52.376Z,15.82
2018-03-14T10:35:19.656Z,15.83
2018-03-14T10:37:46.093Z,15.83
2018-03-14T10:40:13.314Z,15.84
2018-03-14T10:42:39.759Z,15.83
2018-03-14T10:45:06.236Z,15.84
2018-03-14T10:47:32.700Z,15.84
2018-03-14T10:49:59.168Z,15.84
2018-03-14T10:52:26.376Z,15.84
2018-03-14T10:54:52.824Z,15.83
2018-03-14T10:57:19.282Z,15.83
2018-03-14T10:59:45.743Z,15.84
2018-03-14T11:02:12.190Z,15.84
2018-03-14T11:04:39.435Z,15.83
2018-03-14T11:07:05.890Z,15.84
2018-03-14T11:09:32.369Z,15.84
2018-03-14T11:11:59.604Z,15.84
2018-03-14T11:14:26.067Z,15.83
2018-03-14T11:16:52.626Z,15.83
2018-03-14T11:19:19.862Z,15.84
2018-03-14T11:21:46.348Z,15.83
2018-03-14T11:24:12.826Z,15.85
2018-03-14T11:26:39.316Z,15.84
2018-03-14T11:29:05.757Z,15.84
2018-03-14T11:31:32.246Z,15.84
2018-03-14T11:33:58.712Z,15.84
2018-03-14T11:36:25.199Z,15.84
2018-03-14T11:38:51.663Z,15.84
2018-03-14T11:41:18.917Z,15.84
2018-03-14T11:43:45.376Z,15.83
2018-03-14T11:46:12.631Z,15.84
2018-03-14T11:48:39.141Z,15.84
2018-03-14T11:51:05.610Z,15.84
2018-03-14T11:53:32.071Z,15.84
2018-03-14T11:55:58.550Z,15.84
2018-03-14T11:58:25.021Z,15.84
2018-03-14T12:00:51.517Z,15.84
2018-03-14T12:03:18.746Z,15.84
2018-03-14T12:05:45.244Z,15.84
2018-03-14T12:08:11.735Z,15.84
2018-03-14T12:10:38.278Z,15.85
2018-03-14T12:13:04.756Z,15.85
2018-03-14T12:15:31.249Z,15.83
2018-03-14T12:17:57.704Z,15.85
2018-03-14T12:20:24.201Z,15.85
2018-03-14T12:22:51.430Z,15.85
2018-03-14T12:25:18.011Z,15.85
2018-03-14T12:27:44.485Z,15.85
2018-03-14T12:30:10.964Z,15.85
2018-03-14T12:32:37.434Z,15.85
2018-03-14T12:35:04.439Z,15.85
2018-03-14T12:37:30.898Z,15.85
2018-03-14T12:39:57.433Z,15.85
2018-03-14T12:42:24.783Z,15.85
2018-03-14T12:44:52.025Z,15.85
2018-03-14T12:47:18.487Z,15.85
2018-03-14T12:49:45.743Z,15.85
2018-03-14T12:52:12.203Z,15.86
2018-03-14T12:54:39.452Z,15.85
2018-03-14T12:57:05.901Z,15.86
2018-03-14T12:59:32.355Z,15.85
2018-03-14T13:01:59.582Z,15.85
2018-03-14T13:04:26.042Z,15.85
2018-03-14T13:06:52.509Z,15.85
2018-03-14T13:09:18.971Z,15.85
2018-03-14T13:11:46.212Z,15.86
2018-03-14T13:14:12.697Z,15.85
2018-03-14T13:16:39.144Z,15.86
2018-03-14T13:19:05.620Z,15.85
2018-03-14T13:21:32.086Z,15.86
2018-03-14T13:23:58.556Z,15.85
2018-03-14T13:26:25.800Z,15.85
2018-03-14T13:28:52.269Z,15.84
2018-03-14T13:31:19.509Z,15.85
2018-03-14T13:33:45.980Z,15.85
2018-03-14T13:36:13.195Z,15.85
2018-03-14T13:38:39.655Z,15.85
2018-03-14T13:41:06.106Z,15.85
2018-03-14T13:43:32.566Z,15.86
2018-03-14T13:45:59.054Z,15.85
2018-03-14T13:48:25.525Z,15.86
2018-03-14T13:50:52.025Z,15.86
2018-03-14T13:53:19.251Z,15.85
2018-03-14T13:55:45.753Z,15.85
2018-03-14T13:58:12.200Z,15.86
2018-03-14T14:00:38.690Z,15.86
2018-03-14T14:03:05.164Z,15.86
2018-03-14T14:05:31.648Z,15.87
2018-03-14T14:07:58.103Z,15.86
2018-03-14T14:10:24.600Z,15.87
2018-03-14T14:12:51.072Z,15.87
2018-03-14T14:15:18.326Z,15.87
2018-03-14T14:17:45.551Z,15.87
2018-03-14T14:20:12.117Z,15.87
2018-03-14T14:22:38.535Z,15.87
2018-03-14T14:25:05.032Z,15.87
2018-03-14T14:27:32.269Z,15.87
2018-03-14T14:29:58.765Z,15.86
2018-03-14T14:32:25.211Z,15.87
2018-03-14T14:34:51.699Z,15.87
2018-03-14T14:37:18.169Z,15.86
2018-03-14T14:39:44.641Z,15.87
2018-03-14T14:42:11.131Z,15.87
2018-03-14T14:44:37.590Z,15.87
2018-03-14T14:47:04.323Z,15.86
2018-03-14T14:49:30.788Z,15.87
2018-03-14T14:51:57.246Z,15.88
2018-03-14T14:54:23.708Z,15.87
2018-03-14T14:56:50.197Z,15.87
2018-03-14T14:59:16.659Z,15.87
2018-03-14T15:01:43.123Z,15.88
2018-03-14T15:04:09.898Z,15.87
2018-03-14T15:06:37.136Z,15.87
2018-03-14T15:09:04.165Z,15.87
2018-03-14T15:11:30.644Z,15.87
2018-03-14T15:13:57.106Z,15.87
2018-03-14T15:16:23.562Z,15.87
2018-03-14T15:18:50.786Z,15.87
2018-03-14T15:21:17.391Z,15.87
2018-03-14T15:23:43.763Z,15.87
2018-03-14T15:26:10.205Z,15.87
2018-03-14T15:28:36.648Z,15.87
2018-03-14T15:31:03.732Z,15.88
2018-03-14T15:33:30.268Z,15.88
2018-03-14T15:35:56.736Z,15.87
2018-03-14T15:38:23.223Z,15.88
2018-03-14T15:40:50.460Z,15.88
2018-03-14T15:43:16.904Z,15.87
2018-03-14T15:45:43.368Z,15.88
2018-03-14T15:48:09.835Z,15.88
2018-03-14T15:50:37.051Z,15.87
2018-03-14T15:53:03.651Z,15.87
2018-03-14T15:55:30.101Z,15.87
2018-03-14T15:57:56.573Z,15.88
2018-03-14T16:00:23.040Z,15.87
2018-03-14T16:02:49.545Z,15.87
2018-03-14T16:05:15.988Z,15.88
2018-03-14T16:07:42.456Z,15.88
2018-03-14T16:10:08.915Z,15.87
2018-03-14T16:12:35.365Z,15.88
2018-03-14T16:15:01.906Z,15.88
2018-03-14T16:17:28.356Z,15.87
2018-03-14T16:19:54.833Z,15.88
2018-03-14T16:22:21.309Z,15.88
2018-03-14T16:24:47.790Z,15.88
2018-03-14T16:27:14.302Z,15.88
2018-03-14T16:29:40.766Z,15.88
2018-03-14T16:32:07.223Z,15.88
2018-03-14T16:34:33.682Z,15.79
2018-03-14T16:37:00.139Z,15.84
2018-03-14T16:39:26.603Z,15.87
2018-03-14T16:41:53.063Z,15.88
2018-03-14T16:44:20.309Z,15.88
2018-03-14T16:46:46.787Z,15.88
2018-03-14T16:49:13.247Z,15.87
2018-03-14T16:51:39.721Z,15.90
2018-03-14T16:54:06.168Z,15.89
2018-03-14T16:56:32.640Z,15.89
2018-03-14T16:58:59.876Z,15.89
2018-03-14T17:01:26.345Z,15.89
2018-03-14T17:03:52.806Z,15.89
2018-03-14T17:06:19.291Z,15.90
2018-03-14T17:08:45.752Z,15.90
2018-03-14T17:11:12.249Z,15.90
2018-03-14T17:13:38.722Z,15.90
2018-03-14T17:16:05.204Z,15.90
2018-03-14T17:18:31.800Z,15.90
2018-03-14T17:20:58.349Z,15.87
2018-03-14T17:23:25.606Z,15.86
2018-03-14T17:25:52.961Z,15.86
2018-03-14T17:28:19.411Z,15.87
2018-03-14T17:30:45.895Z,15.87
2018-03-14T17:33:12.363Z,15.88
2018-03-14T17:35:38.928Z,15.87
2018-03-14T17:38:05.407Z,15.87
2018-03-14T17:40:32.650Z,15.88
2018-03-14T17:42:59.107Z,15.89
2018-03-14T17:45:25.603Z,15.89
2018-03-14T17:47:52.081Z,15.89
2018-03-14T17:50:18.739Z,15.89
2018-03-14T17:52:45.448Z,15.90
2018-03-14T17:55:11.984Z,15.89
2018-03-14T17:57:38.453Z,15.90
2018-03-14T18:00:05.243Z,15.89
2018-03-14T18:02:32.136Z,15.90
2018-03-14T18:04:58.760Z,15.89
2018-03-14T18:07:26.029Z,15.89
2018-03-14T18:09:52.556Z,15.89
2018-03-14T18:12:19.096Z,15.89
2018-03-14T18:14:45.711Z,15.90
2018-03-14T18:17:12.198Z,15.90
2018-03-14T18:19:39.455Z,15.89
2018-03-14T18:22:06.163Z,15.89
2018-03-14T18:24:32.915Z,15.89
2018-03-14T18:26:59.571Z,15.90
2018-03-14T18:29:26.269Z,15.89
2018-03-14T18:31:52.801Z,15.90
2018-03-14T18:34:19.289Z,15.89
2018-03-14T18:36:45.969Z,15.90
2018-03-14T18:39:12.479Z,15.90
2018-03-14T18:41:39.680Z,15.90
2018-03-14T18:44:06.946Z,15.89
2018-03-14T18:46:33.776Z,15.88
2018-03-14T18:49:00.966Z,15.89
2018-03-14T18:51:28.326Z,15.89
2018-03-14T18:53:55.081Z,15.89
2018-03-14T18:56:22.346Z,15.90
2018-03-14T18:58:49.615Z,15.89
2018-03-14T19:01:17.057Z,15.89
2018-03-14T19:03:44.453Z,15.88
2018-03-14T19:06:11.834Z,15.89
2018-03-14T19:08:39.253Z,15.89
2018-03-14T19:11:06.669Z,15.89
2018-03-14T19:13:33.982Z,15.89
2018-03-14T19:16:00.675Z,15.89
2018-03-14T19:18:27.730Z,15.89
2018-03-14T19:20:55.383Z,15.90
2018-03-14T19:23:22.774Z,15.90
2018-03-14T19:25:50.456Z,15.89
2018-03-14T19:28:18.638Z,15.90
2018-03-14T19:30:46.313Z,15.91
2018-03-14T19:33:13.683Z,15.90
2018-03-14T19:35:41.154Z,15.90
2018-03-14T19:38:08.833Z,15.89
2018-03-14T19:40:36.298Z,15.90
2018-03-14T19:43:03.768Z,15.90
2018-03-14T19:45:32.861Z,15.90
2018-03-14T19:48:00.450Z,15.91
2018-03-14T19:50:28.110Z,15.91
2018-03-14T19:52:55.490Z,15.90
2018-03-14T19:55:23.043Z,15.90
2018-03-14T19:57:53.708Z,15.90
2018-03-14T20:00:21.463Z,15.90
2018-03-14T20:02:48.758Z,15.91
2018-03-14T20:05:16.284Z,15.91
2018-03-14T20:07:43.692Z,15.90
2018-03-14T20:10:11.366Z,15.91
2018-03-14T20:12:39.551Z,15.90
2018-03-14T20:15:07.214Z,15.91
2018-03-14T20:17:34.699Z,15.91
2018-03-14T20:20:02.335Z,15.91
2018-03-14T20:22:29.836Z,15.90
2018-03-14T20:24:58.130Z,15.91
2018-03-14T20:27:25.598Z,15.91
2018-03-14T20:29:53.163Z,15.91
2018-03-14T20:32:21.339Z,15.91
2018-03-14T20:34:48.906Z,15.91
2018-03-14T20:37:16.397Z,15.91
2018-03-14T20:39:43.768Z,15.91
2018-03-14T20:42:12.429Z,15.91
2018-03-14T20:44:40.037Z,15.91
2018-03-14T20:47:07.593Z,15.92
2018-03-14T20:49:34.941Z,15.92
2018-03-14T20:52:02.221Z,15.90
2018-03-14T20:54:29.922Z,15.91
2018-03-14T20:56:57.394Z,15.90
2018-03-14T20:59:25.680Z,15.72
2018-03-14T21:01:53.792Z,15.82
2018-03-14T21:04:21.644Z,15.87
2018-03-14T21:06:49.042Z,15.89
2018-03-14T21:09:16.480Z,15.89
2018-03-14T21:11:43.950Z,15.89
2018-03-14T21:14:11.646Z,15.90
2018-03-14T21:16:40.095Z,15.90
2018-03-14T21:19:08.445Z,15.90
2018-03-14T21:21:35.995Z,15.90
2018-03-14T21:24:03.963Z,15.90
2018-03-14T21:26:31.683Z,15.91
2018-03-14T21:28:59.246Z,15.91
2018-03-14T21:31:26.941Z,15.91
2018-03-14T21:33:55.535Z,15.90
2018-03-14T21:36:24.396Z,15.91
2018-03-14T21:38:52.965Z,15.91
2018-03-14T21:41:20.965Z,15.90
2018-03-14T21:43:49.373Z,15.90
2018-03-14T21:46:17.475Z,15.91
2018-03-14T21:48:46.734Z,15.91
2018-03-14T21:51:15.276Z,15.91
2018-03-14T21:53:47.339Z,15.91
2018-03-14T21:56:15.330Z,15.91
2018-03-14T21:58:42.968Z,15.91
2018-03-14T22:01:10.903Z,15.90
2018-03-14T22:03:38.449Z,15.91
2018-03-14T22:06:06.197Z,15.91
2018-03-14T22:08:36.067Z,15.92
2018-03-14T22:11:07.911Z,15.91
2018-03-14T22:13:36.313Z,15.91
2018-03-14T22:16:04.086Z,15.91
2018-03-14T22:18:31.858Z,15.91
2018-03-14T22:23:31.864Z,15.91
2018-03-14T22:26:00.618Z,15.91
2018-03-14T22:28:29.272Z,15.92
2018-03-14T22:30:57.320Z,15.92
2018-03-14T22:33:24.971Z,15.92
2018-03-14T22:35:53.558Z,15.91
2018-03-14T22:38:21.877Z,15.91
2018-03-14T22:40:48.710Z,15.92
2018-03-14T22:43:18.388Z,15.91
2018-03-14T22:45:49.032Z,15.91
2018-03-14T22:48:17.271Z,15.92
2018-03-14T22:50:45.254Z,15.92
2018-03-14T22:53:12.871Z,15.92
2018-03-14T22:55:44.065Z,15.92
2018-03-14T22:58:11.701Z,15.92
2018-03-14T23:00:42.438Z,15.92
2018-03-14T23:05:40.712Z,15.93
2018-03-14T23:08:08.681Z,15.92
2018-03-14T23:10:39.654Z,15.92
2018-03-14T23:13:09.428Z,15.92
2018-03-14T23:15:38.040Z,15.92
2018-03-14T23:18:05.650Z,15.92
2018-03-14T23:20:34.172Z,15.93
2018-03-14T23:23:04.504Z,15.92
2018-03-14T23:28:05.897Z,15.91
2018-03-14T23:30:32.653Z,15.92
2018-03-14T23:32:59.107Z,15.91
2018-03-14T23:35:25.586Z,15.92
2018-03-14T23:37:52.161Z,15.92
2018-03-14T23:40:19.480Z,15.91
2018-03-14T23:42:46.023Z,15.92
2018-03-14T23:45:12.732Z,15.92
2018-03-14T23:47:39.246Z,15.92
2018-03-14T23:50:05.774Z,15.92
2018-03-14T23:52:32.230Z,15.92
2018-03-14T23:54:58.700Z,15.92
2018-03-14T23:57:25.167Z,15.91
2018-03-14T23:59:52.538Z,15.91
